sensor_id;sensor_type;location;lat;lon;timestamp;pressure;altitude;pressure_sealevel;temperature;humidity
55916;BME280;41826;53.246;-6.670;2023-02-11T00:00:47;103059.94;;;9.36;100.00
55916;BME280;41826;53.246;-6.670;2023-02-11T00:03:12;103060.50;;;9.25;100.00
55916;BME280;41826;53.246;-6.670;2023-02-11T00:05:38;103061.31;;;9.08;100.00
55916;BME280;41826;53.246;-6.670;2023-02-11T00:08:03;103056.38;;;9.02;100.00
55916;BME280;41826;53.246;-6.670;2023-02-11T00:10:29;103050.81;;;8.91;100.00
55916;BME280;41826;53.246;-6.670;2023-02-11T00:12:55;103048.44;;;8.86;100.00
55916;BME280;41826;53.246;-6.670;2023-02-11T00:15:20;103054.50;;;8.87;100.00
55916;BME280;41826;53.246;-6.670;2023-02-11T00:17:46;103058.81;;;8.88;100.00
55916;BME280;41826;53.246;-6.670;2023-02-11T00:20:11;103060.75;;;8.84;100.00
55916;BME280;41826;53.246;-6.670;2023-02-11T00:22:37;103068.81;;;8.80;100.00
55916;BME280;41826;53.246;-6.670;2023-02-11T00:25:02;103059.44;;;8.57;100.00
55916;BME280;41826;53.246;-6.670;2023-02-11T00:27:28;103063.53;;;8.62;100.00
55916;BME280;41826;53.246;-6.670;2023-02-11T00:29:53;103055.84;;;8.59;100.00
55916;BME280;41826;53.246;-6.670;2023-02-11T00:32:18;103060.06;;;8.62;100.00
55916;BME280;41826;53.246;-6.670;2023-02-11T00:34:44;103052.78;;;8.68;100.00
55916;BME280;41826;53.246;-6.670;2023-02-11T00:37:09;103053.16;;;8.78;100.00
55916;BME280;41826;53.246;-6.670;2023-02-11T00:39:36;103051.44;;;8.60;100.00
55916;BME280;41826;53.246;-6.670;2023-02-11T00:42:01;103045.50;;;8.56;100.00
55916;BME280;41826;53.246;-6.670;2023-02-11T00:44:27;103055.69;;;8.62;100.00
55916;BME280;41826;53.246;-6.670;2023-02-11T00:46:52;103059.09;;;8.64;100.00
55916;BME280;41826;53.246;-6.670;2023-02-11T00:49:18;103051.03;;;8.50;100.00
55916;BME280;41826;53.246;-6.670;2023-02-11T00:51:43;103062.97;;;8.75;100.00
55916;BME280;41826;53.246;-6.670;2023-02-11T00:54:08;103056.25;;;8.50;100.00
55916;BME280;41826;53.246;-6.670;2023-02-11T00:56:34;103048.75;;;8.61;100.00
55916;BME280;41826;53.246;-6.670;2023-02-11T00:59:00;103037.72;;;8.55;100.00
55916;BME280;41826;53.246;-6.670;2023-02-11T01:01:25;103037.50;;;8.59;100.00
55916;BME280;41826;53.246;-6.670;2023-02-11T01:03:51;103031.84;;;8.68;100.00
55916;BME280;41826;53.246;-6.670;2023-02-11T01:06:16;103027.81;;;8.61;100.00
55916;BME280;41826;53.246;-6.670;2023-02-11T01:08:42;103027.50;;;8.67;100.00
55916;BME280;41826;53.246;-6.670;2023-02-11T01:11:17;103023.34;;;8.63;100.00
55916;BME280;41826;53.246;-6.670;2023-02-11T01:13:43;103020.88;;;8.60;100.00
55916;BME280;41826;53.246;-6.670;2023-02-11T01:16:10;103015.63;;;8.60;100.00
55916;BME280;41826;53.246;-6.670;2023-02-11T01:18:35;103013.59;;;8.48;100.00
55916;BME280;41826;53.246;-6.670;2023-02-11T01:21:04;103004.75;;;8.51;100.00
55916;BME280;41826;53.246;-6.670;2023-02-11T01:23:29;103000.66;;;8.45;100.00
55916;BME280;41826;53.246;-6.670;2023-02-11T01:25:55;102993.22;;;8.36;100.00
55916;BME280;41826;53.246;-6.670;2023-02-11T01:28:23;102991.16;;;8.61;100.00
55916;BME280;41826;53.246;-6.670;2023-02-11T01:30:49;102995.97;;;8.52;100.00
55916;BME280;41826;53.246;-6.670;2023-02-11T01:33:15;103003.06;;;8.50;100.00
55916;BME280;41826;53.246;-6.670;2023-02-11T01:35:42;102997.25;;;8.43;100.00
55916;BME280;41826;53.246;-6.670;2023-02-11T01:38:18;102994.50;;;8.46;100.00
55916;BME280;41826;53.246;-6.670;2023-02-11T01:40:53;102992.88;;;8.43;100.00
55916;BME280;41826;53.246;-6.670;2023-02-11T01:43:20;102994.78;;;8.59;100.00
55916;BME280;41826;53.246;-6.670;2023-02-11T01:48:20;102992.53;;;8.51;100.00
55916;BME280;41826;53.246;-6.670;2023-02-11T01:50:49;102984.38;;;8.57;100.00
55916;BME280;41826;53.246;-6.670;2023-02-11T01:53:16;102992.06;;;8.60;100.00
55916;BME280;41826;53.246;-6.670;2023-02-11T01:56:02;102987.00;;;8.38;100.00
55916;BME280;41826;53.246;-6.670;2023-02-11T01:58:48;102984.59;;;8.34;100.00
55916;BME280;41826;53.246;-6.670;2023-02-11T02:01:19;102995.91;;;8.34;100.00
55916;BME280;41826;53.246;-6.670;2023-02-11T02:03:47;102991.81;;;8.29;100.00
55916;BME280;41826;53.246;-6.670;2023-02-11T02:06:20;102985.78;;;8.27;100.00
55916;BME280;41826;53.246;-6.670;2023-02-11T02:09:01;102993.63;;;8.45;100.00
55916;BME280;41826;53.246;-6.670;2023-02-11T02:11:27;102996.41;;;8.42;100.00
55916;BME280;41826;53.246;-6.670;2023-02-11T02:13:53;102995.84;;;8.55;100.00
55916;BME280;41826;53.246;-6.670;2023-02-11T02:16:20;103005.00;;;8.46;100.00
55916;BME280;41826;53.246;-6.670;2023-02-11T02:27:47;102996.09;;;8.30;100.00
55916;BME280;41826;53.246;-6.670;2023-02-11T02:38:37;102992.94;;;8.61;100.00
55916;BME280;41826;53.246;-6.670;2023-02-11T02:41:12;102992.00;;;8.62;100.00
55916;BME280;41826;53.246;-6.670;2023-02-11T02:43:43;102984.31;;;8.40;100.00
55916;BME280;41826;53.246;-6.670;2023-02-11T02:46:11;102975.41;;;8.44;100.00
55916;BME280;41826;53.246;-6.670;2023-02-11T02:48:37;102986.72;;;8.44;100.00
55916;BME280;41826;53.246;-6.670;2023-02-11T02:56:55;102979.19;;;8.56;100.00
55916;BME280;41826;53.246;-6.670;2023-02-11T03:02:01;102986.75;;;8.62;100.00
55916;BME280;41826;53.246;-6.670;2023-02-11T03:04:45;102976.50;;;8.57;100.00
55916;BME280;41826;53.246;-6.670;2023-02-11T03:07:43;102985.78;;;8.45;100.00
55916;BME280;41826;53.246;-6.670;2023-02-11T03:10:16;102982.59;;;8.39;100.00
55916;BME280;41826;53.246;-6.670;2023-02-11T03:12:43;102985.56;;;8.50;100.00
55916;BME280;41826;53.246;-6.670;2023-02-11T03:15:11;102977.47;;;8.18;100.00
55916;BME280;41826;53.246;-6.670;2023-02-11T03:17:40;102972.56;;;8.30;100.00
55916;BME280;41826;53.246;-6.670;2023-02-11T03:20:09;102970.19;;;8.06;100.00
55916;BME280;41826;53.246;-6.670;2023-02-11T03:22:47;102963.59;;;8.16;100.00
55916;BME280;41826;53.246;-6.670;2023-02-11T03:25:13;102955.75;;;7.97;100.00
55916;BME280;41826;53.246;-6.670;2023-02-11T03:28:01;102952.13;;;8.00;100.00
55916;BME280;41826;53.246;-6.670;2023-02-11T03:30:48;102945.34;;;8.15;100.00
55916;BME280;41826;53.246;-6.670;2023-02-11T03:33:32;102940.16;;;8.32;100.00
55916;BME280;41826;53.246;-6.670;2023-02-11T03:36:03;102946.34;;;8.12;100.00
55916;BME280;41826;53.246;-6.670;2023-02-11T03:38:36;102931.72;;;8.08;100.00
55916;BME280;41826;53.246;-6.670;2023-02-11T03:41:05;102930.72;;;8.11;100.00
55916;BME280;41826;53.246;-6.670;2023-02-11T03:43:36;102930.09;;;8.06;100.00
55916;BME280;41826;53.246;-6.670;2023-02-11T03:46:03;102922.03;;;8.10;100.00
55916;BME280;41826;53.246;-6.670;2023-02-11T03:48:35;102917.66;;;8.11;100.00
55916;BME280;41826;53.246;-6.670;2023-02-11T03:51:05;102916.22;;;7.85;100.00
55916;BME280;41826;53.246;-6.670;2023-02-11T03:53:31;102909.22;;;8.04;100.00
55916;BME280;41826;53.246;-6.670;2023-02-11T03:55:59;102909.28;;;8.02;100.00
55916;BME280;41826;53.246;-6.670;2023-02-11T03:58:29;102906.63;;;8.04;100.00
55916;BME280;41826;53.246;-6.670;2023-02-11T04:00:55;102894.69;;;7.98;100.00
55916;BME280;41826;53.246;-6.670;2023-02-11T04:03:20;102889.50;;;7.97;100.00
55916;BME280;41826;53.246;-6.670;2023-02-11T04:05:45;102890.00;;;8.05;100.00
55916;BME280;41826;53.246;-6.670;2023-02-11T04:08:11;102891.28;;;7.96;100.00
55916;BME280;41826;53.246;-6.670;2023-02-11T04:10:37;102887.81;;;7.96;100.00
55916;BME280;41826;53.246;-6.670;2023-02-11T04:13:02;102886.00;;;7.98;100.00
55916;BME280;41826;53.246;-6.670;2023-02-11T04:15:27;102887.53;;;8.02;100.00
55916;BME280;41826;53.246;-6.670;2023-02-11T04:17:53;102886.00;;;7.98;100.00
55916;BME280;41826;53.246;-6.670;2023-02-11T04:20:18;102883.59;;;7.93;100.00
55916;BME280;41826;53.246;-6.670;2023-02-11T04:22:44;102884.00;;;8.03;100.00
55916;BME280;41826;53.246;-6.670;2023-02-11T04:25:09;102874.28;;;7.88;100.00
55916;BME280;41826;53.246;-6.670;2023-02-11T04:27:35;102880.88;;;7.95;100.00
55916;BME280;41826;53.246;-6.670;2023-02-11T04:30:01;102882.03;;;8.08;100.00
55916;BME280;41826;53.246;-6.670;2023-02-11T04:32:27;102873.88;;;8.14;100.00
55916;BME280;41826;53.246;-6.670;2023-02-11T04:34:52;102886.00;;;7.98;100.00
55916;BME280;41826;53.246;-6.670;2023-02-11T04:37:19;102890.09;;;8.03;100.00
55916;BME280;41826;53.246;-6.670;2023-02-11T04:39:44;102886.00;;;7.98;100.00
55916;BME280;41826;53.246;-6.670;2023-02-11T04:42:09;102884.69;;;8.07;100.00
55916;BME280;41826;53.246;-6.670;2023-02-11T04:44:35;102891.59;;;7.90;100.00
55916;BME280;41826;53.246;-6.670;2023-02-11T04:47:00;102889.09;;;7.87;100.00
55916;BME280;41826;53.246;-6.670;2023-02-11T04:49:25;102894.31;;;8.06;100.00
55916;BME280;41826;53.246;-6.670;2023-02-11T04:51:51;102902.31;;;8.03;100.00
55916;BME280;41826;53.246;-6.670;2023-02-11T04:54:17;102898.72;;;8.06;100.00
55916;BME280;41826;53.246;-6.670;2023-02-11T04:56:42;102905.06;;;8.00;100.00
55916;BME280;41826;53.246;-6.670;2023-02-11T04:59:08;102912.31;;;8.12;100.00
55916;BME280;41826;53.246;-6.670;2023-02-11T05:01:33;102919.38;;;7.93;100.00
55916;BME280;41826;53.246;-6.670;2023-02-11T05:03:59;102914.81;;;8.15;100.00
55916;BME280;41826;53.246;-6.670;2023-02-11T05:06:24;102915.03;;;7.92;100.00
55916;BME280;41826;53.246;-6.670;2023-02-11T05:08:50;102923.00;;;8.08;100.00
55916;BME280;41826;53.246;-6.670;2023-02-11T05:11:18;102930.38;;;8.18;100.00
55916;BME280;41826;53.246;-6.670;2023-02-11T05:13:45;102924.78;;;8.07;100.00
55916;BME280;41826;53.246;-6.670;2023-02-11T05:16:11;102928.97;;;8.11;100.00
55916;BME280;41826;53.246;-6.670;2023-02-11T05:18:38;102934.34;;;8.08;100.00
55916;BME280;41826;53.246;-6.670;2023-02-11T05:21:08;102937.75;;;8.10;100.00
55916;BME280;41826;53.246;-6.670;2023-02-11T05:23:34;102950.66;;;8.13;100.00
55916;BME280;41826;53.246;-6.670;2023-02-11T05:25:59;102950.09;;;8.07;100.00
55916;BME280;41826;53.246;-6.670;2023-02-11T05:28:25;102953.63;;;8.06;100.00
55916;BME280;41826;53.246;-6.670;2023-02-11T05:30:50;102954.06;;;8.15;100.00
55916;BME280;41826;53.246;-6.670;2023-02-11T05:33:16;102950.38;;;8.19;100.00
55916;BME280;41826;53.246;-6.670;2023-02-11T05:35:41;102951.22;;;8.20;100.00
55916;BME280;41826;53.246;-6.670;2023-02-11T05:38:07;102963.59;;;8.16;100.00
55916;BME280;41826;53.246;-6.670;2023-02-11T05:40:32;102956.38;;;8.21;100.00
55916;BME280;41826;53.246;-6.670;2023-02-11T05:42:57;102957.44;;;8.17;100.00
55916;BME280;41826;53.246;-6.670;2023-02-11T05:45:23;102949.59;;;7.98;100.00
55916;BME280;41826;53.246;-6.670;2023-02-11T05:47:48;102952.00;;;8.03;100.00
55916;BME280;41826;53.246;-6.670;2023-02-11T05:50:14;102956.38;;;8.02;100.00
55916;BME280;41826;53.246;-6.670;2023-02-11T05:52:39;102958.72;;;8.09;100.00
55916;BME280;41826;53.246;-6.670;2023-02-11T05:55:05;102964.31;;;8.01;100.00
55916;BME280;41826;53.246;-6.670;2023-02-11T05:57:30;102973.75;;;7.85;100.00
55916;BME280;41826;53.246;-6.670;2023-02-11T05:59:55;102979.09;;;7.83;100.00
55916;BME280;41826;53.246;-6.670;2023-02-11T06:02:21;102978.72;;;7.91;100.00
55916;BME280;41826;53.246;-6.670;2023-02-11T06:04:46;102980.91;;;8.00;100.00
55916;BME280;41826;53.246;-6.670;2023-02-11T06:07:12;102975.91;;;8.14;100.00
55916;BME280;41826;53.246;-6.670;2023-02-11T06:09:37;102989.28;;;8.08;100.00
55916;BME280;41826;53.246;-6.670;2023-02-11T06:12:03;102992.94;;;8.04;100.00
55916;BME280;41826;53.246;-6.670;2023-02-11T06:14:31;102988.69;;;8.01;100.00
55916;BME280;41826;53.246;-6.670;2023-02-11T06:16:57;102989.00;;;7.95;100.00
55916;BME280;41826;53.246;-6.670;2023-02-11T06:19:23;102989.47;;;8.03;100.00
55916;BME280;41826;53.246;-6.670;2023-02-11T06:21:48;102988.50;;;8.06;100.00
55916;BME280;41826;53.246;-6.670;2023-02-11T06:24:14;102990.63;;;7.98;100.00
55916;BME280;41826;53.246;-6.670;2023-02-11T06:26:39;102983.75;;;7.95;100.00
55916;BME280;41826;53.246;-6.670;2023-02-11T06:29:05;102982.84;;;8.15;100.00
55916;BME280;41826;53.246;-6.670;2023-02-11T06:31:30;102978.25;;;8.20;100.00
55916;BME280;41826;53.246;-6.670;2023-02-11T06:33:55;102980.50;;;8.09;100.00
55916;BME280;41826;53.246;-6.670;2023-02-11T06:36:22;102990.19;;;8.07;100.00
55916;BME280;41826;53.246;-6.670;2023-02-11T06:38:48;102984.22;;;7.85;100.00
55916;BME280;41826;53.246;-6.670;2023-02-11T06:41:15;102992.00;;;8.05;100.00
55916;BME280;41826;53.246;-6.670;2023-02-11T06:43:42;102997.97;;;8.09;100.00
55916;BME280;41826;53.246;-6.670;2023-02-11T06:46:08;102994.97;;;7.78;100.00
55916;BME280;41826;53.246;-6.670;2023-02-11T06:48:34;102991.72;;;7.73;100.00
55916;BME280;41826;53.246;-6.670;2023-02-11T06:51:07;102998.78;;;7.71;100.00
55916;BME280;41826;53.246;-6.670;2023-02-11T06:53:35;102997.38;;;8.02;100.00
55916;BME280;41826;53.246;-6.670;2023-02-11T06:56:02;103000.16;;;7.99;100.00
55916;BME280;41826;53.246;-6.670;2023-02-11T06:58:28;102998.16;;;8.04;100.00
55916;BME280;41826;53.246;-6.670;2023-02-11T07:00:54;103005.94;;;7.87;100.00
55916;BME280;41826;53.246;-6.670;2023-02-11T07:03:19;103004.59;;;7.78;100.00
55916;BME280;41826;53.246;-6.670;2023-02-11T07:05:44;103015.78;;;8.00;100.00
55916;BME280;41826;53.246;-6.670;2023-02-11T07:08:10;103021.91;;;7.99;100.00
55916;BME280;41826;53.246;-6.670;2023-02-11T07:10:35;103015.19;;;7.94;100.00
55916;BME280;41826;53.246;-6.670;2023-02-11T07:13:01;103019.38;;;7.98;100.00
55916;BME280;41826;53.246;-6.670;2023-02-11T07:15:26;103021.56;;;8.07;100.00
55916;BME280;41826;53.246;-6.670;2023-02-11T07:17:52;103030.25;;;8.08;100.00
55916;BME280;41826;53.246;-6.670;2023-02-11T07:20:18;103036.28;;;8.10;100.00
55916;BME280;41826;53.246;-6.670;2023-02-11T07:22:43;103035.44;;;7.90;100.00
55916;BME280;41826;53.246;-6.670;2023-02-11T07:25:08;103038.84;;;8.11;100.00
55916;BME280;41826;53.246;-6.670;2023-02-11T07:27:34;103039.09;;;8.05;100.00
55916;BME280;41826;53.246;-6.670;2023-02-11T07:29:59;103050.94;;;8.14;100.00
55916;BME280;41826;53.246;-6.670;2023-02-11T07:32:24;103054.63;;;7.89;100.00
55916;BME280;41826;53.246;-6.670;2023-02-11T07:34:50;103056.47;;;7.87;100.00
55916;BME280;41826;53.246;-6.670;2023-02-11T07:37:15;103060.75;;;8.09;100.00
55916;BME280;41826;53.246;-6.670;2023-02-11T07:39:41;103067.22;;;8.20;100.00
55916;BME280;41826;53.246;-6.670;2023-02-11T07:42:06;103074.72;;;8.28;100.00
55916;BME280;41826;53.246;-6.670;2023-02-11T07:44:31;103075.41;;;8.13;100.00
55916;BME280;41826;53.246;-6.670;2023-02-11T07:46:58;103080.63;;;8.13;100.00
55916;BME280;41826;53.246;-6.670;2023-02-11T07:49:23;103094.75;;;8.09;100.00
55916;BME280;41826;53.246;-6.670;2023-02-11T07:51:49;103097.09;;;8.15;100.00
55916;BME280;41826;53.246;-6.670;2023-02-11T07:54:15;103092.88;;;8.31;100.00
55916;BME280;41826;53.246;-6.670;2023-02-11T07:56:41;103087.41;;;7.98;100.00
55916;BME280;41826;53.246;-6.670;2023-02-11T07:59:07;103100.38;;;7.99;100.00
55916;BME280;41826;53.246;-6.670;2023-02-11T08:01:32;103099.94;;;8.10;100.00
55916;BME280;41826;53.246;-6.670;2023-02-11T08:03:59;103092.38;;;8.23;100.00
55916;BME280;41826;53.246;-6.670;2023-02-11T08:06:27;103100.78;;;8.11;100.00
55916;BME280;41826;53.246;-6.670;2023-02-11T08:08:52;103108.69;;;8.09;100.00
55916;BME280;41826;53.246;-6.670;2023-02-11T08:11:21;103105.09;;;7.91;100.00
55916;BME280;41826;53.246;-6.670;2023-02-11T08:13:47;103107.00;;;8.08;100.00
55916;BME280;41826;53.246;-6.670;2023-02-11T08:16:22;103108.53;;;8.12;100.00
55916;BME280;41826;53.246;-6.670;2023-02-11T08:18:48;103108.19;;;8.01;100.00
55916;BME280;41826;53.246;-6.670;2023-02-11T08:21:14;103108.69;;;8.09;100.00
55916;BME280;41826;53.246;-6.670;2023-02-11T08:23:41;103104.13;;;7.94;100.00
55916;BME280;41826;53.246;-6.670;2023-02-11T08:26:18;103102.28;;;7.96;100.00
55916;BME280;41826;53.246;-6.670;2023-02-11T08:28:45;103101.31;;;7.98;100.00
55916;BME280;41826;53.246;-6.670;2023-02-11T08:31:20;103108.63;;;8.11;100.00
55916;BME280;41826;53.246;-6.670;2023-02-11T08:33:46;103101.47;;;7.95;100.00
55916;BME280;41826;53.246;-6.670;2023-02-11T08:36:14;103115.94;;;8.02;100.00
55916;BME280;41826;53.246;-6.670;2023-02-11T08:38:41;103117.84;;;7.99;100.00
55916;BME280;41826;53.246;-6.670;2023-02-11T08:41:06;103116.81;;;8.03;100.00
55916;BME280;41826;53.246;-6.670;2023-02-11T08:43:33;103112.94;;;8.12;100.00
55916;BME280;41826;53.246;-6.670;2023-02-11T08:45:59;103115.34;;;8.16;100.00
55916;BME280;41826;53.246;-6.670;2023-02-11T08:48:25;103112.94;;;7.91;100.00
55916;BME280;41826;53.246;-6.670;2023-02-11T08:50:50;103119.28;;;8.06;100.00
55916;BME280;41826;53.246;-6.670;2023-02-11T08:53:16;103124.38;;;8.09;100.00
55916;BME280;41826;53.246;-6.670;2023-02-11T08:55:48;103121.75;;;8.09;100.00
55916;BME280;41826;53.246;-6.670;2023-02-11T08:58:13;103117.56;;;8.05;100.00
55916;BME280;41826;53.246;-6.670;2023-02-11T09:00:38;103117.50;;;8.07;100.00
55916;BME280;41826;53.246;-6.670;2023-02-11T09:03:04;103127.50;;;8.17;100.00
55916;BME280;41826;53.246;-6.670;2023-02-11T09:05:29;103122.75;;;8.07;100.00
55916;BME280;41826;53.246;-6.670;2023-02-11T09:07:54;103116.53;;;8.09;100.00
55916;BME280;41826;53.246;-6.670;2023-02-11T09:10:20;103119.00;;;8.12;100.00
55916;BME280;41826;53.246;-6.670;2023-02-11T09:12:45;103128.03;;;8.05;100.00
55916;BME280;41826;53.246;-6.670;2023-02-11T09:15:10;103130.78;;;8.02;100.00
55916;BME280;41826;53.246;-6.670;2023-02-11T09:17:36;103128.56;;;8.13;100.00
55916;BME280;41826;53.246;-6.670;2023-02-11T09:20:01;103136.56;;;8.10;100.00
55916;BME280;41826;53.246;-6.670;2023-02-11T09:22:27;103137.41;;;8.11;100.00
55916;BME280;41826;53.246;-6.670;2023-02-11T09:24:52;103142.81;;;8.27;100.00
55916;BME280;41826;53.246;-6.670;2023-02-11T09:27:18;103137.56;;;8.27;100.00
55916;BME280;41826;53.246;-6.670;2023-02-11T09:29:43;103145.06;;;8.15;100.00
55916;BME280;41826;53.246;-6.670;2023-02-11T09:32:09;103149.84;;;8.06;100.00
55916;BME280;41826;53.246;-6.670;2023-02-11T09:34:34;103150.41;;;8.12;100.00
55916;BME280;41826;53.246;-6.670;2023-02-11T09:37:00;103150.41;;;8.12;100.00
55916;BME280;41826;53.246;-6.670;2023-02-11T09:39:25;103159.19;;;8.11;100.00
55916;BME280;41826;53.246;-6.670;2023-02-11T09:44:27;103156.34;;;8.36;100.00
55916;BME280;41826;53.246;-6.670;2023-02-11T09:46:59;103158.13;;;8.15;100.00
55916;BME280;41826;53.246;-6.670;2023-02-11T09:49:47;103157.47;;;8.31;100.00
55916;BME280;41826;53.246;-6.670;2023-02-11T09:52:30;103156.94;;;8.22;100.00
55916;BME280;41826;53.246;-6.670;2023-02-11T09:55:02;103160.91;;;8.31;100.00
55916;BME280;41826;53.246;-6.670;2023-02-11T09:57:31;103167.59;;;8.38;100.00
55916;BME280;41826;53.246;-6.670;2023-02-11T09:59:57;103169.91;;;8.46;100.00
55916;BME280;41826;53.246;-6.670;2023-02-11T10:11:07;103169.03;;;8.45;100.00
55916;BME280;41826;53.246;-6.670;2023-02-11T10:16:32;103178.97;;;8.37;100.00
55916;BME280;41826;53.246;-6.670;2023-02-11T10:24:27;103174.84;;;8.52;100.00
55916;BME280;41826;53.246;-6.670;2023-02-11T10:26:53;103174.19;;;8.47;100.00
55916;BME280;41826;53.246;-6.670;2023-02-11T10:29:48;103178.38;;;8.51;100.00
55916;BME280;41826;53.246;-6.670;2023-02-11T10:34:48;103175.47;;;8.57;100.00
55916;BME280;41826;53.246;-6.670;2023-02-11T10:37:15;103175.56;;;8.75;100.00
55916;BME280;41826;53.246;-6.670;2023-02-11T10:39:40;103173.00;;;8.73;100.00
55916;BME280;41826;53.246;-6.670;2023-02-11T10:42:08;103176.63;;;8.71;100.00
55916;BME280;41826;53.246;-6.670;2023-02-11T10:44:45;103182.94;;;8.66;100.00
55916;BME280;41826;53.246;-6.670;2023-02-11T10:47:19;103188.72;;;8.73;100.00
55916;BME280;41826;53.246;-6.670;2023-02-11T10:49:46;103192.56;;;8.66;100.00
55916;BME280;41826;53.246;-6.670;2023-02-11T10:52:23;103184.84;;;8.82;100.00
55916;BME280;41826;53.246;-6.670;2023-02-11T10:57:37;103188.47;;;8.79;100.00
55916;BME280;41826;53.246;-6.670;2023-02-11T11:00:39;103186.69;;;8.80;100.00
55916;BME280;41826;53.246;-6.670;2023-02-11T11:03:35;103180.31;;;8.85;100.00
55916;BME280;41826;53.246;-6.670;2023-02-11T11:06:05;103179.41;;;8.86;100.00
55916;BME280;41826;53.246;-6.670;2023-02-11T11:08:46;103177.69;;;8.85;100.00
55916;BME280;41826;53.246;-6.670;2023-02-11T11:11:20;103175.06;;;9.04;100.00
55916;BME280;41826;53.246;-6.670;2023-02-11T11:16:29;103178.97;;;8.96;100.00
55916;BME280;41826;53.246;-6.670;2023-02-11T11:22:01;103192.53;;;9.23;100.00
55916;BME280;41826;53.246;-6.670;2023-02-11T11:26:56;103193.25;;;9.07;100.00
55916;BME280;41826;53.246;-6.670;2023-02-11T11:31:59;103195.00;;;9.26;100.00
55916;BME280;41826;53.246;-6.670;2023-02-11T11:34:30;103192.28;;;9.10;100.00
55916;BME280;41826;53.246;-6.670;2023-02-11T11:37:08;103190.84;;;9.22;100.00
55916;BME280;41826;53.246;-6.670;2023-02-11T11:39:34;103188.06;;;9.25;100.00
55916;BME280;41826;53.246;-6.670;2023-02-11T11:42:05;103180.63;;;9.35;100.00
55916;BME280;41826;53.246;-6.670;2023-02-11T11:44:55;103172.88;;;9.31;100.00
55916;BME280;41826;53.246;-6.670;2023-02-11T11:47:28;103168.56;;;9.30;100.00
55916;BME280;41826;53.246;-6.670;2023-02-11T11:52:49;103160.78;;;9.29;100.00
55916;BME280;41826;53.246;-6.670;2023-02-11T11:55:45;103166.66;;;9.34;100.00
55916;BME280;41826;53.246;-6.670;2023-02-11T11:58:20;103171.78;;;9.54;100.00
55916;BME280;41826;53.246;-6.670;2023-02-11T12:06:50;103162.03;;;9.57;100.00
55916;BME280;41826;53.246;-6.670;2023-02-11T12:12:29;103152.19;;;9.79;100.00
55916;BME280;41826;53.246;-6.670;2023-02-11T12:15:41;103140.47;;;9.69;100.00
55916;BME280;41826;53.246;-6.670;2023-02-11T12:24:02;103113.84;;;9.76;100.00
55916;BME280;41826;53.246;-6.670;2023-02-11T12:26:55;103102.66;;;9.90;100.00
55916;BME280;41826;53.246;-6.670;2023-02-11T12:30:02;103110.13;;;9.98;100.00
55916;BME280;41826;53.246;-6.670;2023-02-11T12:41:03;103017.63;;;10.26;100.00
55916;BME280;41826;53.246;-6.670;2023-02-11T12:43:39;102987.50;;;10.33;100.00
55916;BME280;41826;53.246;-6.670;2023-02-11T12:49:11;102956.25;;;10.29;100.00
55916;BME280;41826;53.246;-6.670;2023-02-11T12:59:37;102944.13;;;10.42;100.00
55916;BME280;41826;53.246;-6.670;2023-02-11T13:02:15;102922.28;;;10.41;100.00
55916;BME280;41826;53.246;-6.670;2023-02-11T13:04:47;102910.06;;;10.56;100.00
55916;BME280;41826;53.246;-6.670;2023-02-11T13:07:27;102949.84;;;10.65;100.00
55916;BME280;41826;53.246;-6.670;2023-02-11T13:10:17;102923.84;;;10.60;100.00
55916;BME280;41826;53.246;-6.670;2023-02-11T13:12:47;102959.16;;;10.70;100.00
55916;BME280;41826;53.246;-6.670;2023-02-11T13:15:32;102940.13;;;10.81;100.00
55916;BME280;41826;53.246;-6.670;2023-02-11T13:21:20;102950.63;;;10.81;100.00
55916;BME280;41826;53.246;-6.670;2023-02-11T13:23:56;102942.31;;;10.89;100.00
55916;BME280;41826;53.246;-6.670;2023-02-11T13:26:38;102971.25;;;11.03;100.00
55916;BME280;41826;53.246;-6.670;2023-02-11T13:29:22;102984.22;;;11.06;100.00
55916;BME280;41826;53.246;-6.670;2023-02-11T13:31:57;102921.53;;;10.70;100.00
55916;BME280;41826;53.246;-6.670;2023-02-11T13:37:22;102875.84;;;10.72;100.00
55916;BME280;41826;53.246;-6.670;2023-02-11T13:40:00;102873.94;;;10.60;100.00
55916;BME280;41826;53.246;-6.670;2023-02-11T13:42:28;102863.44;;;10.60;100.00
55916;BME280;41826;53.246;-6.670;2023-02-11T13:44:54;102878.09;;;10.78;100.00
55916;BME280;41826;53.246;-6.670;2023-02-11T13:47:31;102866.09;;;10.74;100.00
55916;BME280;41826;53.246;-6.670;2023-02-11T13:49:59;102876.38;;;10.63;100.00
55916;BME280;41826;53.246;-6.670;2023-02-11T13:52:28;102915.75;;;10.93;100.00
55916;BME280;41826;53.246;-6.670;2023-02-11T13:54:58;102881.56;;;10.65;100.00
55916;BME280;41826;53.246;-6.670;2023-02-11T13:57:32;102888.22;;;10.70;100.00
55916;BME280;41826;53.246;-6.670;2023-02-11T14:00:00;102872.16;;;10.60;100.00
55916;BME280;41826;53.246;-6.670;2023-02-11T14:02:35;102891.59;;;10.72;100.00
55916;BME280;41826;53.246;-6.670;2023-02-11T14:08:23;102879.50;;;10.70;100.00
55916;BME280;41826;53.246;-6.670;2023-02-11T14:16:21;102855.69;;;10.43;100.00
55916;BME280;41826;53.246;-6.670;2023-02-11T14:29:16;102890.00;;;10.70;100.00
55916;BME280;41826;53.246;-6.670;2023-02-11T14:31:57;102915.63;;;10.66;100.00
55916;BME280;41826;53.246;-6.670;2023-02-11T14:37:01;102907.38;;;10.42;100.00
55916;BME280;41826;53.246;-6.670;2023-02-11T14:39:46;102914.59;;;10.38;100.00
55916;BME280;41826;53.246;-6.670;2023-02-11T14:42:22;102918.88;;;10.39;100.00
55916;BME280;41826;53.246;-6.670;2023-02-11T14:44:52;102911.63;;;10.29;100.00
55916;BME280;41826;53.246;-6.670;2023-02-11T14:47:23;102902.22;;;10.09;100.00
55916;BME280;41826;53.246;-6.670;2023-02-11T14:49:52;102920.75;;;10.37;100.00
55916;BME280;41826;53.246;-6.670;2023-02-11T14:52:29;102914.56;;;10.07;100.00
55916;BME280;41826;53.246;-6.670;2023-02-11T14:58:19;102927.09;;;10.17;100.00
55916;BME280;41826;53.246;-6.670;2023-02-11T15:01:17;102920.25;;;9.99;100.00